createdAt,value
2019-05-28T00:00:37.180Z,0.00
2019-05-28T00:01:37.170Z,0.00
2019-05-28T00:02:37.156Z,0.00
2019-05-28T00:03:37.151Z,0.00
2019-05-28T00:04:37.209Z,0.00
2019-05-28T00:05:37.130Z,0.00
2019-05-28T00:06:37.110Z,0.00
2019-05-28T00:07:37.101Z,0.00
2019-05-28T00:08:37.092Z,0.00
2019-05-28T00:09:37.078Z,0.00
2019-05-28T00:10:37.278Z,0.00
2019-05-28T00:11:37.055Z,0.00
2019-05-28T00:12:37.052Z,0.00
2019-05-28T00:13:37.035Z,0.00
2019-05-28T00:14:37.023Z,0.00
2019-05-28T00:15:37.012Z,0.00
2019-05-28T00:16:37.075Z,0.00
2019-05-28T00:17:37.028Z,0.00
2019-05-28T00:18:36.978Z,0.00
2019-05-28T00:19:36.963Z,0.00
2019-05-28T00:20:36.953Z,0.00
2019-05-28T00:21:36.943Z,0.00
2019-05-28T00:22:37.149Z,0.00
2019-05-28T00:23:36.921Z,0.00
2019-05-28T00:24:36.913Z,0.00
2019-05-28T00:25:36.897Z,0.00
2019-05-28T00:26:36.885Z,0.00
2019-05-28T00:27:36.890Z,0.00
2019-05-28T00:28:37.081Z,0.00
2019-05-28T00:29:36.850Z,0.00
2019-05-28T00:30:36.843Z,0.00
2019-05-28T00:31:36.834Z,0.00
2019-05-28T00:32:36.816Z,0.00
2019-05-28T00:33:36.805Z,0.00
2019-05-28T00:34:36.862Z,0.00
2019-05-28T00:35:36.788Z,0.00
2019-05-28T00:36:36.775Z,0.00
2019-05-28T00:37:36.761Z,0.00
2019-05-28T00:38:36.749Z,0.00
2019-05-28T00:39:36.739Z,0.00
2019-05-28T00:40:36.794Z,0.00
2019-05-28T00:41:36.717Z,0.00
2019-05-28T00:42:36.704Z,0.00
2019-05-28T00:43:36.697Z,0.00
2019-05-28T00:44:36.682Z,0.00
2019-05-28T00:45:36.671Z,0.00
2019-05-28T00:46:36.734Z,0.00
2019-05-28T00:47:36.660Z,0.00
2019-05-28T00:48:36.641Z,0.00
2019-05-28T00:49:36.632Z,0.00
2019-05-28T00:50:36.614Z,0.00
2019-05-28T00:51:36.607Z,0.00
2019-05-28T00:52:36.662Z,0.00
2019-05-28T00:53:36.595Z,0.00
2019-05-28T00:54:36.575Z,0.00
2019-05-28T00:55:36.559Z,0.00
2019-05-28T00:56:36.551Z,0.00
2019-05-28T00:57:36.536Z,0.00
2019-05-28T00:58:36.745Z,0.00
2019-05-28T00:59:36.516Z,0.00
2019-05-28T01:00:37.206Z,0.00
2019-05-28T01:01:36.492Z,0.00
2019-05-28T01:02:36.482Z,0.00
2019-05-28T01:03:36.470Z,0.00
2019-05-28T01:04:36.534Z,0.00
2019-05-28T01:05:36.449Z,0.00
2019-05-28T01:06:36.439Z,0.00
2019-05-28T01:07:36.433Z,0.00
2019-05-28T01:08:36.423Z,0.00
2019-05-28T01:09:36.402Z,0.00
2019-05-28T01:10:36.463Z,0.00
2019-05-28T01:11:36.387Z,0.00
2019-05-28T01:12:36.368Z,0.00
2019-05-28T01:13:36.357Z,0.00
2019-05-28T01:14:36.348Z,0.00
2019-05-28T01:15:36.338Z,0.00
2019-05-28T01:16:36.534Z,0.00
2019-05-28T01:17:36.314Z,0.00
2019-05-28T01:18:36.301Z,0.00
2019-05-28T01:19:36.288Z,0.00
2019-05-28T01:20:36.277Z,0.00
2019-05-28T01:21:36.277Z,0.00
2019-05-28T01:22:36.324Z,0.00
2019-05-28T01:23:36.243Z,0.00
2019-05-28T01:24:36.237Z,0.00
2019-05-28T01:25:36.220Z,0.00
2019-05-28T01:26:36.211Z,0.00
2019-05-28T01:27:36.200Z,0.00
2019-05-28T01:28:36.255Z,0.00
2019-05-28T01:29:36.176Z,0.00
2019-05-28T01:30:53.486Z,0.00
2019-05-28T01:31:37.162Z,0.00
2019-05-28T01:32:36.147Z,0.00
2019-05-28T01:33:36.130Z,0.00
2019-05-28T01:34:36.185Z,0.00
2019-05-28T01:35:36.107Z,0.00
2019-05-28T01:36:36.096Z,0.00
2019-05-28T01:37:36.094Z,0.00
2019-05-28T01:38:36.075Z,0.00
2019-05-28T01:39:36.064Z,0.00
2019-05-28T01:40:36.116Z,0.00
2019-05-28T01:41:36.039Z,0.00
2019-05-28T01:42:36.028Z,0.00
2019-05-28T01:43:36.020Z,0.00
2019-05-28T01:44:36.007Z,0.00
2019-05-28T01:45:36.001Z,0.00
2019-05-28T01:46:36.050Z,0.00
2019-05-28T01:47:35.970Z,0.00
2019-05-28T01:48:35.961Z,0.00
2019-05-28T01:49:35.950Z,0.00
2019-05-28T01:50:35.938Z,0.00
2019-05-28T01:51:35.935Z,0.00
2019-05-28T01:52:35.993Z,0.00
2019-05-28T01:53:35.902Z,0.00
2019-05-28T01:54:35.890Z,0.00
2019-05-28T01:55:35.881Z,0.00
2019-05-28T01:56:35.884Z,0.00
2019-05-28T01:57:35.892Z,0.00
2019-05-28T01:58:35.918Z,0.00
2019-05-28T01:59:35.834Z,0.00
2019-05-28T02:00:35.823Z,0.00
2019-05-28T02:01:35.815Z,0.00
2019-05-28T02:02:35.814Z,0.00
2019-05-28T02:03:35.792Z,0.00
2019-05-28T02:04:35.912Z,0.00
2019-05-28T02:05:35.767Z,0.00
2019-05-28T02:06:35.755Z,0.00
2019-05-28T02:07:35.743Z,0.00
2019-05-28T02:08:35.733Z,0.00
2019-05-28T02:09:35.722Z,0.00
2019-05-28T02:10:35.786Z,0.00
2019-05-28T02:11:35.698Z,0.00
2019-05-28T02:12:35.687Z,0.00
2019-05-28T02:13:35.678Z,0.00
2019-05-28T02:14:35.666Z,0.00
2019-05-28T02:15:35.653Z,0.00
2019-05-28T02:16:35.855Z,0.00
2019-05-28T02:17:35.630Z,0.00
2019-05-28T02:18:35.627Z,0.00
2019-05-28T02:19:35.608Z,0.00
2019-05-28T02:20:35.598Z,0.00
2019-05-28T02:21:35.584Z,0.00
2019-05-28T02:22:35.645Z,0.00
2019-05-28T02:23:35.561Z,0.00
2019-05-28T02:24:35.550Z,0.00
2019-05-28T02:25:35.539Z,0.00
2019-05-28T02:26:35.532Z,0.00
2019-05-28T02:27:35.517Z,0.00
2019-05-28T02:28:35.715Z,0.00
2019-05-28T02:29:35.492Z,0.00
2019-05-28T02:30:35.489Z,0.00
2019-05-28T02:31:35.472Z,0.00
2019-05-28T02:32:35.462Z,0.00
2019-05-28T02:33:35.514Z,0.00
2019-05-28T02:34:35.506Z,0.00
2019-05-28T02:35:35.426Z,4.00
2019-05-28T02:36:35.415Z,4.00
2019-05-28T02:37:35.415Z,4.00
2019-05-28T02:38:35.401Z,4.00
2019-05-28T02:39:35.381Z,4.00
2019-05-28T02:40:35.435Z,4.00
2019-05-28T02:41:35.362Z,8.00
2019-05-28T02:42:35.347Z,4.00
2019-05-28T02:43:35.337Z,8.00
2019-05-28T02:44:35.324Z,8.00
2019-05-28T02:45:35.315Z,8.00
2019-05-28T02:46:35.370Z,12.00
2019-05-28T02:47:35.290Z,16.00
2019-05-28T02:48:35.281Z,16.00
2019-05-28T02:49:35.269Z,16.00
2019-05-28T02:50:35.257Z,20.00
2019-05-28T02:51:35.262Z,20.00
2019-05-28T02:52:35.308Z,24.00
2019-05-28T02:53:35.226Z,28.00
2019-05-28T02:54:35.214Z,28.00
2019-05-28T02:55:35.201Z,28.00
2019-05-28T02:56:35.191Z,32.00
2019-05-28T02:57:35.187Z,36.00
2019-05-28T02:58:35.243Z,40.00
2019-05-28T02:59:35.156Z,44.00
2019-05-28T03:00:35.145Z,48.00
2019-05-28T03:01:43.392Z,52.00
2019-05-28T03:02:36.124Z,52.00
2019-05-28T03:03:35.112Z,60.00
2019-05-28T03:04:35.170Z,64.00
2019-05-28T03:05:35.088Z,68.00
2019-05-28T03:06:35.087Z,72.00
2019-05-28T03:07:35.066Z,76.00
2019-05-28T03:08:35.056Z,84.00
2019-05-28T03:09:35.047Z,96.00
2019-05-28T03:10:59.643Z,104.00
2019-05-28T03:11:36.024Z,116.00
2019-05-28T03:12:35.014Z,128.00
2019-05-28T03:13:34.999Z,140.00
2019-05-28T03:14:34.991Z,152.00
2019-05-28T03:15:34.979Z,160.00
2019-05-28T03:16:35.035Z,164.00
2019-05-28T03:17:34.954Z,180.00
2019-05-28T03:18:34.944Z,192.00
2019-05-28T03:19:34.932Z,208.00
2019-05-28T03:20:34.920Z,224.00
2019-05-28T03:21:34.910Z,228.00
2019-05-28T03:22:34.979Z,236.00
2019-05-28T03:23:34.891Z,244.00
2019-05-28T03:24:34.918Z,260.00
2019-05-28T03:25:34.864Z,280.00
2019-05-28T03:26:34.855Z,296.00
2019-05-28T03:27:34.844Z,312.00
2019-05-28T03:28:35.061Z,320.00
2019-05-28T03:29:34.822Z,328.00
2019-05-28T03:30:34.810Z,328.00
2019-05-28T03:31:34.797Z,332.00
2019-05-28T03:32:34.803Z,332.00
2019-05-28T03:33:34.801Z,336.00
2019-05-28T03:34:34.860Z,340.00
2019-05-28T03:35:34.770Z,352.00
2019-05-28T03:36:34.757Z,368.00
2019-05-28T03:37:34.752Z,388.00
2019-05-28T03:38:34.740Z,416.00
2019-05-28T03:39:34.722Z,436.00
2019-05-28T03:40:34.777Z,464.00
2019-05-28T03:41:34.699Z,488.00
2019-05-28T03:42:34.691Z,524.00
2019-05-28T03:43:34.677Z,556.00
2019-05-28T03:44:34.668Z,584.00
2019-05-28T03:45:34.659Z,616.00
2019-05-28T03:46:34.859Z,652.00
2019-05-28T03:47:34.632Z,688.00
2019-05-28T03:48:34.621Z,728.00
2019-05-28T03:49:34.666Z,764.00
2019-05-28T03:50:34.598Z,800.00
2019-05-28T03:51:34.587Z,840.00
2019-05-28T03:52:34.790Z,880.00
2019-05-28T03:53:34.568Z,924.00
2019-05-28T03:54:34.555Z,960.00
2019-05-28T03:55:34.543Z,1004.00
2019-05-28T03:56:34.535Z,1048.00
2019-05-28T03:57:34.523Z,1108.00
2019-05-28T03:58:34.577Z,1184.00
2019-05-28T03:59:34.500Z,1276.00
2019-05-28T04:00:41.015Z,1388.00
2019-05-28T04:01:34.464Z,1500.00
2019-05-28T04:02:34.455Z,1604.00
2019-05-28T04:03:34.437Z,1700.00
2019-05-28T04:04:34.638Z,1788.00
2019-05-28T04:05:34.414Z,1876.00
2019-05-28T04:06:34.417Z,1956.00
2019-05-28T04:07:34.396Z,2036.00
2019-05-28T04:08:34.380Z,2120.00
2019-05-28T04:09:34.371Z,2192.00
2019-05-28T04:10:34.427Z,2260.00
2019-05-28T04:11:44.336Z,2324.00
2019-05-28T04:12:35.337Z,2392.00
2019-05-28T04:13:34.335Z,2456.00
2019-05-28T04:14:34.327Z,2524.00
2019-05-28T04:15:34.301Z,2580.00
2019-05-28T04:16:34.360Z,2636.00
2019-05-28T04:17:34.279Z,2684.00
2019-05-28T04:18:34.273Z,2724.00
2019-05-28T04:19:34.257Z,2756.00
2019-05-28T04:20:34.247Z,2776.00
2019-05-28T04:21:34.238Z,2788.00
2019-05-28T04:22:34.290Z,2800.00
2019-05-28T04:23:34.212Z,2800.00
2019-05-28T04:24:34.200Z,2800.00
2019-05-28T04:25:34.198Z,2800.00
2019-05-28T04:26:34.208Z,2800.00
2019-05-28T04:27:34.168Z,2800.00
2019-05-28T04:28:34.220Z,2800.00
2019-05-28T04:29:34.148Z,2800.00
2019-05-28T04:30:34.137Z,2796.00
2019-05-28T04:31:34.123Z,2792.00
2019-05-28T04:32:40.427Z,2784.00
2019-05-28T04:33:35.166Z,2780.00
2019-05-28T04:34:34.097Z,2784.00
2019-05-28T04:35:34.078Z,2788.00
2019-05-28T04:36:34.066Z,2788.00
2019-05-28T04:37:34.059Z,2788.00
2019-05-28T04:38:34.048Z,2796.00
2019-05-28T04:39:35.481Z,2800.00
2019-05-28T04:40:34.022Z,2816.00
2019-05-28T04:41:34.026Z,2832.00
2019-05-28T04:42:33.996Z,2840.00
2019-05-28T04:43:33.990Z,2848.00
2019-05-28T04:44:33.976Z,2844.00
2019-05-28T04:45:34.053Z,2856.00
2019-05-28T04:46:33.950Z,2872.00
2019-05-28T04:47:33.940Z,2912.00
2019-05-28T04:48:33.926Z,2964.00
2019-05-28T04:49:33.937Z,3040.00
2019-05-28T04:50:33.951Z,3128.00
2019-05-28T04:51:33.970Z,3220.00
2019-05-28T04:52:33.882Z,3304.00
2019-05-28T04:53:33.873Z,3376.00
2019-05-28T04:54:33.860Z,3440.00
2019-05-28T04:55:33.853Z,3496.00
2019-05-28T04:56:33.835Z,3548.00
2019-05-28T04:57:34.046Z,3572.00
2019-05-28T04:58:33.813Z,3588.00
2019-05-28T04:59:33.807Z,3596.00
2019-05-28T05:00:33.793Z,3612.00
2019-05-28T05:01:33.780Z,3656.00
2019-05-28T05:02:33.828Z,3736.00
2019-05-28T05:03:33.822Z,3848.00
2019-05-28T05:04:33.746Z,3996.00
2019-05-28T05:05:33.735Z,4192.00
2019-05-28T05:06:33.722Z,4412.00
2019-05-28T05:07:33.715Z,4664.00
2019-05-28T05:08:33.711Z,4932.00
2019-05-28T05:09:33.762Z,5204.00
2019-05-28T05:10:33.680Z,5464.00
2019-05-28T05:11:33.729Z,5696.00
2019-05-28T05:12:33.660Z,5900.00
2019-05-28T05:13:33.646Z,6084.00
2019-05-28T05:14:33.634Z,6248.00
2019-05-28T05:15:33.833Z,6408.00
2019-05-28T05:16:33.610Z,6568.00
2019-05-28T05:17:33.618Z,6740.00
2019-05-28T05:18:33.627Z,6916.00
2019-05-28T05:19:34.494Z,7084.00
2019-05-28T05:20:33.690Z,7240.00
2019-05-28T05:21:35.698Z,7372.00
2019-05-28T05:22:33.587Z,7484.00
2019-05-28T05:23:33.535Z,7584.00
2019-05-28T05:24:33.601Z,7648.00
2019-05-28T05:25:33.566Z,7712.00
2019-05-28T05:26:33.541Z,7748.00
2019-05-28T05:27:33.568Z,7792.00
2019-05-28T05:28:33.480Z,7820.00
2019-05-28T05:29:33.465Z,7812.00
2019-05-28T05:30:33.456Z,7796.00
2019-05-28T05:31:33.441Z,7784.00
2019-05-28T05:32:33.430Z,7780.00
2019-05-28T05:33:33.487Z,7768.00
2019-05-28T05:34:33.407Z,7752.00
2019-05-28T05:35:33.397Z,7764.00
2019-05-28T05:36:33.385Z,7808.00
2019-05-28T05:37:33.375Z,7888.00
2019-05-28T05:38:33.365Z,8020.00
2019-05-28T05:39:33.564Z,8196.00
2019-05-28T05:40:33.350Z,8388.00
2019-05-28T05:41:33.329Z,8584.00
2019-05-28T05:42:33.320Z,8788.00
2019-05-28T05:43:33.322Z,8984.00
2019-05-28T05:44:33.668Z,9160.00
2019-05-28T05:45:33.450Z,9324.00
2019-05-28T05:46:33.291Z,9476.00
2019-05-28T05:47:33.394Z,9612.00
2019-05-28T05:48:33.250Z,9740.00
2019-05-28T05:49:33.240Z,9856.00
2019-05-28T05:50:33.229Z,9956.00
2019-05-28T05:51:33.281Z,10028.00
2019-05-28T05:52:33.203Z,10104.00
2019-05-28T05:53:33.193Z,10184.00
2019-05-28T05:54:33.181Z,10300.00
2019-05-28T05:55:33.172Z,10456.00
2019-05-28T05:56:33.160Z,10640.00
2019-05-28T05:57:33.215Z,10848.00
2019-05-28T05:58:33.148Z,11072.00
2019-05-28T05:59:33.124Z,11308.00
2019-05-28T06:00:33.113Z,11560.00
2019-05-28T06:01:33.102Z,11812.00
2019-05-28T06:02:33.099Z,12044.00
2019-05-28T06:03:40.350Z,12220.00
2019-05-28T06:04:34.088Z,12376.00
2019-05-28T06:05:33.058Z,12516.00
2019-05-28T06:06:33.051Z,12668.00
2019-05-28T06:07:33.043Z,12816.00
2019-05-28T06:08:33.040Z,12948.00
2019-05-28T06:09:33.085Z,13068.00
2019-05-28T06:10:33.003Z,13180.00
2019-05-28T06:11:32.996Z,13312.00
2019-05-28T06:12:32.989Z,13452.00
2019-05-28T06:13:32.974Z,13588.00
2019-05-28T06:14:32.959Z,13688.00
2019-05-28T06:15:33.015Z,13772.00
2019-05-28T06:16:32.938Z,13864.00
2019-05-28T06:17:32.925Z,13948.00
2019-05-28T06:18:32.918Z,14056.00
2019-05-28T06:19:32.902Z,14196.00
2019-05-28T06:20:32.897Z,14376.00
2019-05-28T06:21:32.948Z,14544.00
2019-05-28T06:22:32.868Z,14688.00
2019-05-28T06:23:32.858Z,14848.00
2019-05-28T06:24:32.849Z,14996.00
2019-05-28T06:25:32.838Z,15124.00
2019-05-28T06:26:32.823Z,15256.00
2019-05-28T06:27:32.879Z,15436.00
2019-05-28T06:28:32.802Z,15588.00
2019-05-28T06:29:32.793Z,15736.00
2019-05-28T06:30:32.780Z,15852.00
2019-05-28T06:31:32.770Z,15944.00
2019-05-28T06:32:34.186Z,16032.00
2019-05-28T06:33:32.808Z,16096.00
2019-05-28T06:34:32.733Z,16164.00
2019-05-28T06:35:32.720Z,16352.00
2019-05-28T06:36:32.711Z,16480.00
2019-05-28T06:37:32.710Z,16576.00
2019-05-28T06:38:32.686Z,16736.00
2019-05-28T06:39:32.885Z,16960.00
2019-05-28T06:40:32.706Z,17216.00
2019-05-28T06:41:32.654Z,17504.00
2019-05-28T06:42:38.073Z,17856.00
2019-05-28T06:43:33.629Z,18176.00
2019-05-28T06:44:32.619Z,18464.00
2019-05-28T06:45:32.676Z,18720.00
2019-05-28T06:46:32.598Z,19008.00
2019-05-28T06:47:32.586Z,19168.00
2019-05-28T06:48:32.588Z,19232.00
2019-05-28T06:49:32.568Z,19200.00
2019-05-28T06:50:32.553Z,19168.00
2019-05-28T06:51:32.608Z,19104.00
2019-05-28T06:52:32.529Z,19136.00
2019-05-28T06:53:32.521Z,19200.00
2019-05-28T06:54:32.507Z,19264.00
2019-05-28T06:55:32.497Z,19424.00
2019-05-28T06:56:32.488Z,19616.00
2019-05-28T06:57:32.685Z,19808.00
2019-05-28T06:58:39.454Z,19840.00
2019-05-28T06:59:33.450Z,19776.00
2019-05-28T07:00:32.441Z,19648.00
2019-05-28T07:01:32.429Z,19584.00
2019-05-28T07:02:32.422Z,19520.00
2019-05-28T07:03:32.473Z,19488.00
2019-05-28T07:04:33.241Z,19360.00
2019-05-28T07:05:32.385Z,19264.00
2019-05-28T07:06:32.372Z,19264.00
2019-05-28T07:07:32.361Z,19392.00
2019-05-28T07:08:32.357Z,19520.00
2019-05-28T07:09:32.553Z,19680.00
2019-05-28T07:10:32.328Z,19776.00
2019-05-28T07:11:32.316Z,19872.00
2019-05-28T07:12:32.311Z,19840.00
2019-05-28T07:13:32.293Z,19744.00
2019-05-28T07:14:32.284Z,19648.00
2019-05-28T07:15:32.338Z,19584.00
2019-05-28T07:16:32.259Z,19488.00
2019-05-28T07:17:32.256Z,19488.00
2019-05-28T07:18:32.251Z,19488.00
2019-05-28T07:19:32.225Z,19520.00
2019-05-28T07:20:32.214Z,19520.00
2019-05-28T07:21:32.274Z,19520.00
2019-05-28T07:22:32.192Z,19520.00
2019-05-28T07:23:32.190Z,19616.00
2019-05-28T07:24:32.172Z,19808.00
2019-05-28T07:25:32.160Z,20096.00
2019-05-28T07:26:32.147Z,20352.00
2019-05-28T07:27:32.203Z,20576.00
2019-05-28T07:28:32.129Z,20768.00
2019-05-28T07:29:32.115Z,20896.00
2019-05-28T07:30:32.107Z,21088.00
2019-05-28T07:31:32.092Z,21312.00
2019-05-28T07:32:32.134Z,21600.00
2019-05-28T07:33:35.281Z,21920.00
2019-05-28T07:34:32.087Z,22240.00
2019-05-28T07:35:44.636Z,22464.00
2019-05-28T07:36:33.034Z,22656.00
2019-05-28T07:37:32.023Z,22784.00
2019-05-28T07:38:32.012Z,22816.00
2019-05-28T07:39:32.069Z,22784.00
2019-05-28T07:40:32.463Z,22688.00
2019-05-28T07:41:31.979Z,22560.00
2019-05-28T07:42:33.220Z,22400.00
2019-05-28T07:43:31.956Z,22208.00
2019-05-28T07:44:31.950Z,22048.00
2019-05-28T07:45:31.999Z,21952.00
2019-05-28T07:46:31.922Z,22048.00
2019-05-28T07:47:31.914Z,22208.00
2019-05-28T07:48:31.901Z,22560.00
2019-05-28T07:49:31.893Z,22880.00
2019-05-28T07:50:31.880Z,23136.00
2019-05-28T07:51:31.941Z,23328.00
2019-05-28T07:52:31.861Z,23424.00
2019-05-28T07:53:39.962Z,23584.00
2019-05-28T07:54:32.837Z,23744.00
2019-05-28T07:55:31.826Z,23936.00
2019-05-28T07:56:31.814Z,24160.00
2019-05-28T07:57:32.015Z,24384.00
2019-05-28T07:58:31.793Z,24480.00
2019-05-28T07:59:31.786Z,24608.00
2019-05-28T08:00:31.773Z,24768.00
2019-05-28T08:01:31.766Z,25024.00
2019-05-28T08:02:31.751Z,25248.00
2019-05-28T08:03:31.804Z,25504.00
2019-05-28T08:04:46.251Z,25728.00
2019-05-28T08:05:32.712Z,25952.00
2019-05-28T08:06:31.704Z,26208.00
2019-05-28T08:07:31.690Z,26560.00
2019-05-28T08:08:31.685Z,26848.00
2019-05-28T08:09:31.741Z,27168.00
2019-05-28T08:10:31.658Z,27424.00
2019-05-28T08:11:31.669Z,27648.00
2019-05-28T08:12:31.633Z,27808.00
2019-05-28T08:13:40.740Z,27936.00
2019-05-28T08:14:32.677Z,28096.00
2019-05-28T08:15:31.602Z,28224.00
2019-05-28T08:16:31.587Z,28288.00
2019-05-28T08:17:31.576Z,28256.00
2019-05-28T08:18:31.566Z,28128.00
2019-05-28T08:19:31.599Z,27936.00
2019-05-28T08:20:31.702Z,27808.00
2019-05-28T08:21:32.425Z,27776.00
2019-05-28T08:22:41.619Z,27808.00
2019-05-28T08:23:32.556Z,27840.00
2019-05-28T08:24:31.499Z,27904.00
2019-05-28T08:25:46.131Z,28064.00
2019-05-28T08:26:32.552Z,28416.00
2019-05-28T08:27:31.493Z,28832.00
2019-05-28T08:28:31.453Z,29088.00
2019-05-28T08:29:31.449Z,29056.00
2019-05-28T08:30:31.457Z,28736.00
2019-05-28T08:31:31.419Z,28416.00
2019-05-28T08:32:31.631Z,28096.00
2019-05-28T08:33:31.398Z,27808.00
2019-05-28T08:34:31.389Z,27552.00
2019-05-28T08:35:31.377Z,27360.00
2019-05-28T08:36:31.366Z,27104.00
2019-05-28T08:37:31.354Z,27104.00
2019-05-28T08:38:31.410Z,27360.00
2019-05-28T08:39:33.518Z,27712.00
2019-05-28T08:40:31.322Z,27968.00
2019-05-28T08:41:31.309Z,28224.00
2019-05-28T08:42:31.461Z,28672.00
2019-05-28T08:43:31.288Z,29216.00
2019-05-28T08:44:31.344Z,29792.00
2019-05-28T08:45:31.269Z,30400.00
2019-05-28T08:46:31.256Z,30976.00
2019-05-28T08:47:31.245Z,31360.00
2019-05-28T08:48:31.236Z,31360.00
2019-05-28T08:49:31.221Z,31136.00
2019-05-28T08:50:35.058Z,30816.00
2019-05-28T08:51:31.202Z,30688.00
2019-05-28T08:52:31.190Z,30848.00
2019-05-28T08:53:31.178Z,31232.00
2019-05-28T08:54:31.169Z,31616.00
2019-05-28T08:55:31.339Z,31808.00
2019-05-28T08:56:31.222Z,32160.00
2019-05-28T08:57:31.135Z,32640.00
2019-05-28T08:58:31.127Z,33024.00
2019-05-28T08:59:31.113Z,33408.00
2019-05-28T09:00:31.100Z,33376.00
2019-05-28T09:01:31.090Z,33376.00
2019-05-28T09:02:31.291Z,33440.00
2019-05-28T09:03:31.069Z,32928.00
2019-05-28T09:04:31.068Z,32192.00
2019-05-28T09:05:31.048Z,31648.00
2019-05-28T09:06:31.037Z,31552.00
2019-05-28T09:07:31.028Z,32128.00
2019-05-28T09:08:39.139Z,33344.00
2019-05-28T09:09:32.001Z,34592.00
2019-05-28T09:10:30.999Z,35520.00
2019-05-28T09:11:30.980Z,36096.00
2019-05-28T09:12:30.971Z,36160.00
2019-05-28T09:13:30.957Z,36192.00
2019-05-28T09:14:53.842Z,36800.00
2019-05-28T09:15:31.934Z,37568.00
2019-05-28T09:16:30.927Z,37760.00
2019-05-28T09:17:30.914Z,37824.00
2019-05-28T09:18:30.902Z,38176.00
2019-05-28T09:19:30.902Z,39904.00
2019-05-28T09:20:30.951Z,42144.00
2019-05-28T09:21:30.869Z,41920.00
2019-05-28T09:22:30.860Z,42208.00
2019-05-28T09:23:30.848Z,41824.00
2019-05-28T09:24:30.837Z,42080.00
2019-05-28T09:25:30.833Z,41632.00
2019-05-28T09:26:31.030Z,41888.00
2019-05-28T09:27:30.804Z,40800.00
2019-05-28T09:28:31.413Z,39040.00
2019-05-28T09:29:30.781Z,37472.00
2019-05-28T09:30:30.788Z,37824.00
2019-05-28T09:31:30.806Z,39264.00
2019-05-28T09:32:30.821Z,38976.00
2019-05-28T09:33:30.736Z,38880.00
2019-05-28T09:34:30.725Z,38784.00
2019-05-28T09:35:44.121Z,38976.00
2019-05-28T09:36:31.703Z,39520.00
2019-05-28T09:37:30.694Z,39584.00
2019-05-28T09:38:30.752Z,39808.00
2019-05-28T09:39:30.673Z,39776.00
2019-05-28T09:40:48.470Z,39872.00
2019-05-28T09:41:31.649Z,39616.00
2019-05-28T09:42:30.637Z,39520.00
2019-05-28T09:43:30.646Z,39136.00
2019-05-28T09:44:30.830Z,39104.00
2019-05-28T09:45:30.603Z,38752.00
2019-05-28T09:46:30.592Z,38976.00
2019-05-28T09:47:30.584Z,38912.00
2019-05-28T09:48:30.571Z,38592.00
2019-05-28T09:49:30.586Z,37632.00
2019-05-28T09:50:31.399Z,36864.00
2019-05-28T09:51:30.556Z,36512.00
2019-05-28T09:52:30.529Z,36320.00
2019-05-28T09:53:30.516Z,36128.00
2019-05-28T09:54:30.508Z,36192.00
2019-05-28T09:55:30.498Z,36096.00
2019-05-28T09:56:32.815Z,35936.00
2019-05-28T09:57:30.481Z,35296.00
2019-05-28T09:58:30.460Z,34880.00
2019-05-28T09:59:41.239Z,34048.00
2019-05-28T10:00:31.438Z,33568.00
2019-05-28T10:01:30.429Z,33344.00
2019-05-28T10:02:30.482Z,33024.00
2019-05-28T10:03:30.406Z,32768.00
2019-05-28T10:04:46.395Z,32448.00
2019-05-28T10:05:31.387Z,32576.00
2019-05-28T10:06:37.139Z,32480.00
2019-05-28T10:07:31.429Z,32512.00
2019-05-28T10:08:30.351Z,32448.00
2019-05-28T10:09:30.343Z,32224.00
2019-05-28T10:10:30.330Z,32320.00
2019-05-28T10:11:30.318Z,32032.00
2019-05-28T10:12:30.306Z,31840.00
2019-05-28T10:13:39.574Z,32000.00
2019-05-28T10:14:31.285Z,32064.00
2019-05-28T10:15:30.273Z,32416.00
2019-05-28T10:16:30.264Z,32352.00
2019-05-28T10:17:30.252Z,32032.00
2019-05-28T10:18:30.254Z,31008.00
2019-05-28T10:19:30.301Z,30400.00
2019-05-28T10:20:30.221Z,29856.00
2019-05-28T10:21:30.209Z,29440.00
2019-05-28T10:22:30.196Z,29376.00
2019-05-28T10:23:30.187Z,29472.00
2019-05-28T10:24:30.174Z,29536.00
2019-05-28T10:25:30.432Z,29408.00
2019-05-28T10:26:30.152Z,29216.00
2019-05-28T10:27:30.143Z,28896.00
2019-05-28T10:28:30.134Z,28672.00
2019-05-28T10:29:30.162Z,28544.00
2019-05-28T10:30:30.108Z,28704.00
2019-05-28T10:31:30.164Z,28640.00
2019-05-28T10:32:30.086Z,28608.00
2019-05-28T10:33:30.079Z,28800.00
2019-05-28T10:34:30.063Z,29056.00
2019-05-28T10:35:30.154Z,29344.00
2019-05-28T10:36:36.113Z,29632.00
2019-05-28T10:37:31.241Z,29856.00
2019-05-28T10:38:30.026Z,30016.00
2019-05-28T10:39:30.029Z,30080.00
2019-05-28T10:40:30.005Z,30272.00
2019-05-28T10:41:29.986Z,30784.00
2019-05-28T10:42:29.975Z,31136.00
2019-05-28T10:43:30.047Z,31296.00
2019-05-28T10:44:29.955Z,32000.00
2019-05-28T10:45:29.941Z,32384.00
2019-05-28T10:46:29.930Z,32736.00
2019-05-28T10:47:29.934Z,32800.00
2019-05-28T10:48:29.908Z,32800.00
2019-05-28T10:49:29.967Z,32640.00
2019-05-28T10:50:29.889Z,32864.00
2019-05-28T10:51:29.876Z,33024.00
2019-05-28T10:52:29.868Z,33120.00
2019-05-28T10:53:29.852Z,33280.00
2019-05-28T10:54:29.842Z,33152.00
2019-05-28T10:55:29.901Z,33376.00
2019-05-28T10:56:29.835Z,33696.00
2019-05-28T10:57:29.809Z,33856.00
2019-05-28T10:58:29.797Z,33984.00
2019-05-28T10:59:29.787Z,34080.00
2019-05-28T11:00:29.777Z,34016.00
2019-05-28T11:01:29.842Z,33856.00
2019-05-28T11:02:29.757Z,33728.00
2019-05-28T11:03:29.749Z,33728.00
2019-05-28T11:04:29.743Z,33888.00
2019-05-28T11:05:29.721Z,33824.00
2019-05-28T11:06:29.713Z,33952.00
2019-05-28T11:07:29.769Z,34400.00
2019-05-28T11:08:29.690Z,35200.00
2019-05-28T11:09:29.679Z,36576.00
2019-05-28T11:10:29.666Z,37344.00
2019-05-28T11:11:29.654Z,37952.00
2019-05-28T11:12:29.646Z,38080.00
2019-05-28T11:13:29.705Z,37728.00
2019-05-28T11:14:29.624Z,38112.00
2019-05-28T11:15:29.610Z,38688.00
2019-05-28T11:16:29.600Z,39264.00
2019-05-28T11:17:29.588Z,40128.00
2019-05-28T11:18:29.580Z,40640.00
2019-05-28T11:19:29.632Z,40864.00
2019-05-28T11:20:29.558Z,41728.00
2019-05-28T11:21:29.547Z,41376.00
2019-05-28T11:22:29.535Z,42048.00
2019-05-28T11:23:29.526Z,41888.00
2019-05-28T11:24:29.513Z,43392.00
2019-05-28T11:25:29.569Z,43968.00
2019-05-28T11:26:29.490Z,46688.00
2019-05-28T11:27:29.479Z,45984.00
2019-05-28T11:28:29.468Z,46432.00
2019-05-28T11:29:29.460Z,47936.00
2019-05-28T11:30:29.449Z,47488.00
2019-05-28T11:31:29.677Z,46912.00
2019-05-28T11:32:29.428Z,44608.00
2019-05-28T11:33:29.414Z,43712.00
2019-05-28T11:34:29.404Z,44736.00
2019-05-28T11:35:29.393Z,47520.00
2019-05-28T11:36:29.390Z,50240.00
2019-05-28T11:37:29.580Z,51424.00
2019-05-28T11:38:29.378Z,48928.00
2019-05-28T11:39:29.349Z,47520.00
2019-05-28T11:40:30.241Z,46368.00
2019-05-28T11:41:41.547Z,46688.00
2019-05-28T11:42:30.385Z,46880.00
2019-05-28T11:43:29.304Z,47840.00
2019-05-28T11:44:29.300Z,46816.00
2019-05-28T11:45:29.283Z,41024.00
2019-05-28T11:46:29.278Z,38144.00
2019-05-28T11:47:29.266Z,36160.00
2019-05-28T11:48:29.331Z,35072.00
2019-05-28T11:49:29.240Z,35008.00
2019-05-28T11:50:29.233Z,35616.00
2019-05-28T11:51:29.222Z,37312.00
2019-05-28T11:52:29.207Z,39616.00
2019-05-28T11:53:29.195Z,42016.00
2019-05-28T11:54:29.482Z,48032.00
2019-05-28T11:55:29.175Z,47456.00
2019-05-28T11:56:29.164Z,47264.00
2019-05-28T11:57:29.152Z,51840.00
2019-05-28T11:58:29.140Z,50976.00
2019-05-28T11:59:29.131Z,52032.00
2019-05-28T12:00:29.330Z,52000.00
2019-05-28T12:01:34.530Z,47296.00
2019-05-28T12:02:30.096Z,48800.00
2019-05-28T12:03:29.097Z,55328.00
2019-05-28T12:04:29.093Z,52128.00
2019-05-28T12:05:29.064Z,65248.00
2019-05-28T12:06:29.121Z,51296.00
2019-05-28T12:07:29.043Z,55840.00
2019-05-28T12:08:29.037Z,63776.00
2019-05-28T12:09:29.084Z,61088.00
2019-05-28T12:10:29.184Z,58432.00
2019-05-28T12:11:29.021Z,50240.00
2019-05-28T12:12:29.202Z,54304.00